sensor_id;sensor_type;location;lat;lon;timestamp;P1;durP1;ratioP1;P2;durP2;ratioP2
15454;SDS011;21057;51.024;7.540;2023-07-20T00:02:23;14.80;;;13.80;;
15454;SDS011;21057;51.024;7.540;2023-07-20T00:04:50;14.70;;;13.80;;
15454;SDS011;21057;51.024;7.540;2023-07-20T00:07:16;15.55;;;14.55;;
15454;SDS011;21057;51.024;7.540;2023-07-20T00:09:43;14.60;;;13.70;;
15454;SDS011;21057;51.024;7.540;2023-07-20T00:12:10;14.32;;;13.43;;
15454;SDS011;21057;51.024;7.540;2023-07-20T00:14:37;14.23;;;13.43;;
15454;SDS011;21057;51.024;7.540;2023-07-20T00:17:05;14.60;;;13.80;;
15454;SDS011;21057;51.024;7.540;2023-07-20T00:19:32;17.80;;;14.48;;
15454;SDS011;21057;51.024;7.540;2023-07-20T00:22:00;14.63;;;13.63;;
15454;SDS011;21057;51.024;7.540;2023-07-20T00:24:27;15.23;;;14.07;;
15454;SDS011;21057;51.024;7.540;2023-07-20T00:26:53;13.98;;;13.18;;
15454;SDS011;21057;51.024;7.540;2023-07-20T00:29:20;14.63;;;13.40;;
15454;SDS011;21057;51.024;7.540;2023-07-20T00:31:47;13.68;;;12.88;;
15454;SDS011;21057;51.024;7.540;2023-07-20T00:34:15;14.05;;;13.10;;
15454;SDS011;21057;51.024;7.540;2023-07-20T00:36:42;14.43;;;13.52;;
15454;SDS011;21057;51.024;7.540;2023-07-20T00:39:08;15.15;;;14.00;;
15454;SDS011;21057;51.024;7.540;2023-07-20T00:41:35;13.77;;;12.93;;
15454;SDS011;21057;51.024;7.540;2023-07-20T00:44:03;14.93;;;13.93;;
15454;SDS011;21057;51.024;7.540;2023-07-20T00:46:30;14.73;;;13.75;;
15454;SDS011;21057;51.024;7.540;2023-07-20T00:48:58;13.98;;;13.18;;
15454;SDS011;21057;51.024;7.540;2023-07-20T00:51:27;15.00;;;13.95;;
15454;SDS011;21057;51.024;7.540;2023-07-20T00:53:54;15.00;;;13.90;;
15454;SDS011;21057;51.024;7.540;2023-07-20T00:56:21;15.13;;;14.23;;
15454;SDS011;21057;51.024;7.540;2023-07-20T00:58:48;14.88;;;13.88;;
15454;SDS011;21057;51.024;7.540;2023-07-20T01:01:15;15.35;;;14.07;;
15454;SDS011;21057;51.024;7.540;2023-07-20T01:03:42;15.18;;;14.27;;
15454;SDS011;21057;51.024;7.540;2023-07-20T01:06:10;15.43;;;14.52;;
15454;SDS011;21057;51.024;7.540;2023-07-20T01:08:47;15.35;;;14.35;;
15454;SDS011;21057;51.024;7.540;2023-07-20T01:11:28;15.00;;;14.00;;
15454;SDS011;21057;51.024;7.540;2023-07-20T01:14:02;15.23;;;14.23;;
15454;SDS011;21057;51.024;7.540;2023-07-20T01:16:29;14.80;;;13.85;;
15454;SDS011;21057;51.024;7.540;2023-07-20T01:18:56;15.25;;;14.35;;
15454;SDS011;21057;51.024;7.540;2023-07-20T01:21:24;15.18;;;14.18;;
15454;SDS011;21057;51.024;7.540;2023-07-20T01:27:19;14.73;;;13.85;;
15454;SDS011;21057;51.024;7.540;2023-07-20T01:30:13;14.80;;;13.90;;
15454;SDS011;21057;51.024;7.540;2023-07-20T01:32:49;16.55;;;15.35;;
15454;SDS011;21057;51.024;7.540;2023-07-20T01:35:16;15.57;;;14.57;;
15454;SDS011;21057;51.024;7.540;2023-07-20T01:37:45;15.85;;;14.90;;
15454;SDS011;21057;51.024;7.540;2023-07-20T01:40:13;15.98;;;14.88;;
15454;SDS011;21057;51.024;7.540;2023-07-20T01:42:43;15.65;;;14.52;;
15454;SDS011;21057;51.024;7.540;2023-07-20T01:45:12;15.52;;;14.52;;
15454;SDS011;21057;51.024;7.540;2023-07-20T01:47:39;14.68;;;13.77;;
15454;SDS011;21057;51.024;7.540;2023-07-20T01:50:07;16.25;;;14.88;;
15454;SDS011;21057;51.024;7.540;2023-07-20T01:52:35;14.68;;;13.77;;
15454;SDS011;21057;51.024;7.540;2023-07-20T01:55:02;15.32;;;14.25;;
15454;SDS011;21057;51.024;7.540;2023-07-20T01:57:29;15.02;;;14.13;;
15454;SDS011;21057;51.024;7.540;2023-07-20T01:59:56;14.82;;;13.90;;
15454;SDS011;21057;51.024;7.540;2023-07-20T02:02:23;14.82;;;13.73;;
15454;SDS011;21057;51.024;7.540;2023-07-20T02:04:52;15.05;;;13.73;;
15454;SDS011;21057;51.024;7.540;2023-07-20T02:07:20;14.10;;;13.20;;
15454;SDS011;21057;51.024;7.540;2023-07-20T02:09:47;14.57;;;13.63;;
15454;SDS011;21057;51.024;7.540;2023-07-20T02:12:14;13.48;;;12.60;;
15454;SDS011;21057;51.024;7.540;2023-07-20T02:14:41;14.23;;;13.02;;
15454;SDS011;21057;51.024;7.540;2023-07-20T02:17:08;14.73;;;13.05;;
15454;SDS011;21057;51.024;7.540;2023-07-20T02:19:36;14.25;;;13.25;;
15454;SDS011;21057;51.024;7.540;2023-07-20T02:22:03;13.88;;;12.90;;
15454;SDS011;21057;51.024;7.540;2023-07-20T02:24:32;14.30;;;13.25;;
15454;SDS011;21057;51.024;7.540;2023-07-20T02:26:59;15.02;;;13.48;;
15454;SDS011;21057;51.024;7.540;2023-07-20T02:29:25;14.30;;;13.30;;
15454;SDS011;21057;51.024;7.540;2023-07-20T02:31:52;14.80;;;13.57;;
15454;SDS011;21057;51.024;7.540;2023-07-20T02:34:19;15.27;;;14.20;;
15454;SDS011;21057;51.024;7.540;2023-07-20T02:36:46;14.98;;;13.55;;
15454;SDS011;21057;51.024;7.540;2023-07-20T02:39:13;14.13;;;13.13;;
15454;SDS011;21057;51.024;7.540;2023-07-20T02:41:41;14.70;;;13.70;;
15454;SDS011;21057;51.024;7.540;2023-07-20T02:44:08;15.32;;;14.18;;
15454;SDS011;21057;51.024;7.540;2023-07-20T02:46:35;15.02;;;13.82;;
15454;SDS011;21057;51.024;7.540;2023-07-20T02:49:01;14.52;;;13.40;;
15454;SDS011;21057;51.024;7.540;2023-07-20T02:51:29;14.73;;;13.63;;
15454;SDS011;21057;51.024;7.540;2023-07-20T02:53:56;15.00;;;13.77;;
15454;SDS011;21057;51.024;7.540;2023-07-20T02:56:22;15.10;;;14.13;;
15454;SDS011;21057;51.024;7.540;2023-07-20T02:58:51;14.25;;;13.25;;
15454;SDS011;21057;51.024;7.540;2023-07-20T03:01:18;14.45;;;13.25;;
15454;SDS011;21057;51.024;7.540;2023-07-20T03:03:45;14.38;;;13.20;;
15454;SDS011;21057;51.024;7.540;2023-07-20T03:06:12;15.40;;;14.13;;
15454;SDS011;21057;51.024;7.540;2023-07-20T03:08:39;14.95;;;13.93;;
15454;SDS011;21057;51.024;7.540;2023-07-20T03:11:12;14.98;;;13.77;;
15454;SDS011;21057;51.024;7.540;2023-07-20T03:13:39;14.80;;;13.52;;
15454;SDS011;21057;51.024;7.540;2023-07-20T03:16:07;15.07;;;13.88;;
15454;SDS011;21057;51.024;7.540;2023-07-20T03:18:37;15.13;;;13.75;;
15454;SDS011;21057;51.024;7.540;2023-07-20T03:21:04;13.82;;;12.93;;
15454;SDS011;21057;51.024;7.540;2023-07-20T03:23:31;14.18;;;13.27;;
15454;SDS011;21057;51.024;7.540;2023-07-20T03:25:58;14.07;;;13.18;;
15454;SDS011;21057;51.024;7.540;2023-07-20T03:28:25;14.27;;;13.18;;
15454;SDS011;21057;51.024;7.540;2023-07-20T03:30:52;14.60;;;13.60;;
15454;SDS011;21057;51.024;7.540;2023-07-20T03:33:21;14.88;;;13.82;;
15454;SDS011;21057;51.024;7.540;2023-07-20T03:35:49;16.40;;;15.30;;
15454;SDS011;21057;51.024;7.540;2023-07-20T03:38:15;14.93;;;13.70;;
15454;SDS011;21057;51.024;7.540;2023-07-20T03:40:48;14.50;;;13.48;;
15454;SDS011;21057;51.024;7.540;2023-07-20T03:43:16;15.02;;;13.82;;
15454;SDS011;21057;51.024;7.540;2023-07-20T03:45:43;14.07;;;13.27;;
15454;SDS011;21057;51.024;7.540;2023-07-20T03:48:10;15.27;;;14.00;;
15454;SDS011;21057;51.024;7.540;2023-07-20T03:50:38;16.05;;;15.00;;
15454;SDS011;21057;51.024;7.540;2023-07-20T03:53:05;15.98;;;14.85;;
15454;SDS011;21057;51.024;7.540;2023-07-20T03:55:32;14.98;;;13.98;;
15454;SDS011;21057;51.024;7.540;2023-07-20T03:57:59;15.52;;;14.52;;
15454;SDS011;21057;51.024;7.540;2023-07-20T04:00:25;16.08;;;15.00;;
15454;SDS011;21057;51.024;7.540;2023-07-20T04:02:52;14.77;;;13.82;;
15454;SDS011;21057;51.024;7.540;2023-07-20T04:05:19;14.38;;;13.43;;
15454;SDS011;21057;51.024;7.540;2023-07-20T04:07:48;14.68;;;13.75;;
15454;SDS011;21057;51.024;7.540;2023-07-20T04:10:16;15.35;;;14.25;;
15454;SDS011;21057;51.024;7.540;2023-07-20T04:12:43;15.57;;;14.52;;
15454;SDS011;21057;51.024;7.540;2023-07-20T04:15:10;15.10;;;14.15;;
15454;SDS011;21057;51.024;7.540;2023-07-20T04:17:38;15.77;;;14.68;;
15454;SDS011;21057;51.024;7.540;2023-07-20T04:20:06;15.85;;;14.57;;
15454;SDS011;21057;51.024;7.540;2023-07-20T04:22:33;15.40;;;14.40;;
15454;SDS011;21057;51.024;7.540;2023-07-20T04:25:01;16.45;;;15.18;;
15454;SDS011;21057;51.024;7.540;2023-07-20T04:27:28;15.30;;;14.32;;
15454;SDS011;21057;51.024;7.540;2023-07-20T04:29:55;15.52;;;14.32;;
15454;SDS011;21057;51.024;7.540;2023-07-20T04:32:23;15.52;;;14.52;;
15454;SDS011;21057;51.024;7.540;2023-07-20T04:34:50;17.20;;;16.02;;
15454;SDS011;21057;51.024;7.540;2023-07-20T04:37:17;16.42;;;15.27;;
15454;SDS011;21057;51.024;7.540;2023-07-20T04:39:44;17.77;;;16.48;;
15454;SDS011;21057;51.024;7.540;2023-07-20T04:42:12;17.15;;;15.95;;
15454;SDS011;21057;51.024;7.540;2023-07-20T04:44:39;18.73;;;17.13;;
15454;SDS011;21057;51.024;7.540;2023-07-20T04:47:06;17.27;;;16.08;;
15454;SDS011;21057;51.024;7.540;2023-07-20T04:49:33;18.23;;;16.92;;
15454;SDS011;21057;51.024;7.540;2023-07-20T04:52:00;17.58;;;16.48;;
15454;SDS011;21057;51.024;7.540;2023-07-20T04:54:28;17.92;;;16.73;;
15454;SDS011;21057;51.024;7.540;2023-07-20T04:56:55;17.80;;;16.58;;
15454;SDS011;21057;51.024;7.540;2023-07-20T04:59:23;20.58;;;17.30;;
15454;SDS011;21057;51.024;7.540;2023-07-20T05:01:50;18.15;;;16.95;;
15454;SDS011;21057;51.024;7.540;2023-07-20T05:04:17;17.60;;;16.27;;
15454;SDS011;21057;51.024;7.540;2023-07-20T05:06:44;17.75;;;16.45;;
15454;SDS011;21057;51.024;7.540;2023-07-20T05:09:11;17.65;;;16.30;;
15454;SDS011;21057;51.024;7.540;2023-07-20T05:11:38;18.42;;;17.13;;
15454;SDS011;21057;51.024;7.540;2023-07-20T05:14:05;20.42;;;18.73;;
15454;SDS011;21057;51.024;7.540;2023-07-20T05:16:33;19.90;;;18.25;;
15454;SDS011;21057;51.024;7.540;2023-07-20T05:19:00;20.33;;;18.83;;
15454;SDS011;21057;51.024;7.540;2023-07-20T05:21:26;21.35;;;19.40;;
15454;SDS011;21057;51.024;7.540;2023-07-20T05:23:53;18.60;;;17.15;;
15454;SDS011;21057;51.024;7.540;2023-07-20T05:26:20;19.38;;;17.95;;
15454;SDS011;21057;51.024;7.540;2023-07-20T05:28:47;19.40;;;17.77;;
15454;SDS011;21057;51.024;7.540;2023-07-20T05:31:13;19.60;;;17.75;;
15454;SDS011;21057;51.024;7.540;2023-07-20T05:33:42;19.75;;;18.15;;
15454;SDS011;21057;51.024;7.540;2023-07-20T05:36:08;18.58;;;17.17;;
15454;SDS011;21057;51.024;7.540;2023-07-20T05:38:35;18.30;;;17.00;;
15454;SDS011;21057;51.024;7.540;2023-07-20T05:41:02;19.00;;;17.08;;
15454;SDS011;21057;51.024;7.540;2023-07-20T05:43:29;19.80;;;18.13;;
15454;SDS011;21057;51.024;7.540;2023-07-20T05:45:56;19.40;;;18.00;;
15454;SDS011;21057;51.024;7.540;2023-07-20T05:48:23;19.95;;;18.15;;
15454;SDS011;21057;51.024;7.540;2023-07-20T05:50:51;19.27;;;17.75;;
15454;SDS011;21057;51.024;7.540;2023-07-20T05:53:18;19.38;;;17.95;;
15454;SDS011;21057;51.024;7.540;2023-07-20T05:55:51;20.55;;;18.70;;
15454;SDS011;21057;51.024;7.540;2023-07-20T05:58:18;19.20;;;17.70;;
15454;SDS011;21057;51.024;7.540;2023-07-20T06:00:47;19.38;;;17.90;;
15454;SDS011;21057;51.024;7.540;2023-07-20T06:03:14;20.85;;;19.10;;
15454;SDS011;21057;51.024;7.540;2023-07-20T06:05:41;20.65;;;18.88;;
15454;SDS011;21057;51.024;7.540;2023-07-20T06:08:10;22.20;;;20.17;;
15454;SDS011;21057;51.024;7.540;2023-07-20T06:10:36;20.55;;;18.95;;
15454;SDS011;21057;51.024;7.540;2023-07-20T06:13:03;20.75;;;19.25;;
15454;SDS011;21057;51.024;7.540;2023-07-20T06:15:31;20.73;;;19.10;;
15454;SDS011;21057;51.024;7.540;2023-07-20T06:17:59;21.67;;;19.35;;
15454;SDS011;21057;51.024;7.540;2023-07-20T06:20:26;21.20;;;19.60;;
15454;SDS011;21057;51.024;7.540;2023-07-20T06:22:53;21.70;;;20.00;;
15454;SDS011;21057;51.024;7.540;2023-07-20T06:25:21;21.65;;;19.60;;
15454;SDS011;21057;51.024;7.540;2023-07-20T06:27:49;20.65;;;18.90;;
15454;SDS011;21057;51.024;7.540;2023-07-20T06:30:16;20.63;;;18.92;;
15454;SDS011;21057;51.024;7.540;2023-07-20T06:32:43;21.35;;;19.58;;
15454;SDS011;21057;51.024;7.540;2023-07-20T06:35:10;21.00;;;19.35;;
15454;SDS011;21057;51.024;7.540;2023-07-20T06:37:37;20.17;;;18.65;;
15454;SDS011;21057;51.024;7.540;2023-07-20T06:40:04;19.92;;;18.52;;
15454;SDS011;21057;51.024;7.540;2023-07-20T06:42:35;21.45;;;19.95;;
15454;SDS011;21057;51.024;7.540;2023-07-20T06:45:02;20.77;;;19.17;;
15454;SDS011;21057;51.024;7.540;2023-07-20T06:47:29;20.65;;;19.13;;
15454;SDS011;21057;51.024;7.540;2023-07-20T06:49:56;21.73;;;19.83;;
15454;SDS011;21057;51.024;7.540;2023-07-20T06:52:23;20.88;;;19.38;;
15454;SDS011;21057;51.024;7.540;2023-07-20T06:54:50;20.40;;;18.98;;
15454;SDS011;21057;51.024;7.540;2023-07-20T06:57:17;20.38;;;19.00;;
15454;SDS011;21057;51.024;7.540;2023-07-20T06:59:45;21.40;;;19.90;;
15454;SDS011;21057;51.024;7.540;2023-07-20T07:02:12;19.70;;;18.38;;
15454;SDS011;21057;51.024;7.540;2023-07-20T07:04:39;20.48;;;18.95;;
15454;SDS011;21057;51.024;7.540;2023-07-20T07:07:06;20.45;;;18.95;;
15454;SDS011;21057;51.024;7.540;2023-07-20T07:09:32;20.63;;;19.10;;
15454;SDS011;21057;51.024;7.540;2023-07-20T07:11:59;20.90;;;19.30;;
15454;SDS011;21057;51.024;7.540;2023-07-20T07:14:26;19.90;;;18.60;;
15454;SDS011;21057;51.024;7.540;2023-07-20T07:16:54;21.80;;;19.83;;
15454;SDS011;21057;51.024;7.540;2023-07-20T07:19:21;20.55;;;18.92;;
15454;SDS011;21057;51.024;7.540;2023-07-20T07:21:48;19.92;;;18.52;;
15454;SDS011;21057;51.024;7.540;2023-07-20T07:24:14;20.55;;;18.73;;
15454;SDS011;21057;51.024;7.540;2023-07-20T07:26:41;20.65;;;19.08;;
15454;SDS011;21057;51.024;7.540;2023-07-20T07:29:08;20.50;;;18.75;;
15454;SDS011;21057;51.024;7.540;2023-07-20T07:31:35;21.45;;;19.80;;
15454;SDS011;21057;51.024;7.540;2023-07-20T07:34:04;21.63;;;19.80;;
15454;SDS011;21057;51.024;7.540;2023-07-20T07:36:32;20.50;;;18.92;;
15454;SDS011;21057;51.024;7.540;2023-07-20T07:38:59;20.58;;;19.08;;
15454;SDS011;21057;51.024;7.540;2023-07-20T07:41:26;20.95;;;19.40;;
15454;SDS011;21057;51.024;7.540;2023-07-20T07:43:52;19.38;;;18.08;;
15454;SDS011;21057;51.024;7.540;2023-07-20T07:46:19;20.80;;;19.30;;
15454;SDS011;21057;51.024;7.540;2023-07-20T07:48:46;21.00;;;19.40;;
15454;SDS011;21057;51.024;7.540;2023-07-20T07:51:14;22.20;;;19.98;;
15454;SDS011;21057;51.024;7.540;2023-07-20T07:53:41;20.80;;;19.30;;
15454;SDS011;21057;51.024;7.540;2023-07-20T07:56:08;19.98;;;18.58;;
15454;SDS011;21057;51.024;7.540;2023-07-20T07:58:35;20.35;;;18.73;;
15454;SDS011;21057;51.024;7.540;2023-07-20T08:01:02;20.10;;;18.60;;
15454;SDS011;21057;51.024;7.540;2023-07-20T08:03:29;19.55;;;18.05;;
15454;SDS011;21057;51.024;7.540;2023-07-20T08:05:56;20.33;;;18.50;;
15454;SDS011;21057;51.024;7.540;2023-07-20T08:08:25;20.05;;;18.67;;
15454;SDS011;21057;51.024;7.540;2023-07-20T08:10:52;18.73;;;17.40;;
15454;SDS011;21057;51.024;7.540;2023-07-20T08:13:20;20.95;;;19.08;;
15454;SDS011;21057;51.024;7.540;2023-07-20T08:15:49;19.77;;;18.38;;
15454;SDS011;21057;51.024;7.540;2023-07-20T08:18:16;20.17;;;18.70;;
15454;SDS011;21057;51.024;7.540;2023-07-20T08:20:43;19.77;;;18.35;;
15454;SDS011;21057;51.024;7.540;2023-07-20T08:23:10;19.98;;;18.30;;
15454;SDS011;21057;51.024;7.540;2023-07-20T08:25:39;20.25;;;18.75;;
15454;SDS011;21057;51.024;7.540;2023-07-20T08:28:08;19.00;;;17.67;;
15454;SDS011;21057;51.024;7.540;2023-07-20T08:30:39;17.60;;;16.17;;
15454;SDS011;21057;51.024;7.540;2023-07-20T08:33:07;17.42;;;16.20;;
15454;SDS011;21057;51.024;7.540;2023-07-20T08:35:33;17.75;;;16.52;;
15454;SDS011;21057;51.024;7.540;2023-07-20T08:38:00;18.48;;;17.27;;
15454;SDS011;21057;51.024;7.540;2023-07-20T08:40:29;18.45;;;17.25;;
15454;SDS011;21057;51.024;7.540;2023-07-20T08:42:57;19.65;;;18.00;;
15454;SDS011;21057;51.024;7.540;2023-07-20T08:45:25;18.60;;;17.38;;
15454;SDS011;21057;51.024;7.540;2023-07-20T08:47:54;18.58;;;17.45;;
15454;SDS011;21057;51.024;7.540;2023-07-20T08:50:22;18.25;;;17.05;;
15454;SDS011;21057;51.024;7.540;2023-07-20T08:52:50;17.92;;;16.83;;
15454;SDS011;21057;51.024;7.540;2023-07-20T08:55:20;17.88;;;16.73;;
15454;SDS011;21057;51.024;7.540;2023-07-20T08:57:48;18.02;;;16.65;;
15454;SDS011;21057;51.024;7.540;2023-07-20T09:00:18;18.52;;;17.33;;
15454;SDS011;21057;51.024;7.540;2023-07-20T09:02:46;18.67;;;17.42;;
15454;SDS011;21057;51.024;7.540;2023-07-20T09:05:15;18.60;;;17.40;;
15454;SDS011;21057;51.024;7.540;2023-07-20T09:07:42;17.85;;;16.70;;
15454;SDS011;21057;51.024;7.540;2023-07-20T09:10:09;18.50;;;17.20;;
15454;SDS011;21057;51.024;7.540;2023-07-20T09:12:37;18.95;;;17.75;;
15454;SDS011;21057;51.024;7.540;2023-07-20T09:15:05;19.23;;;17.92;;
15454;SDS011;21057;51.024;7.540;2023-07-20T09:17:34;19.00;;;17.80;;
15454;SDS011;21057;51.024;7.540;2023-07-20T09:20:03;19.77;;;18.38;;
15454;SDS011;21057;51.024;7.540;2023-07-20T09:22:35;19.92;;;18.67;;
15454;SDS011;21057;51.024;7.540;2023-07-20T09:25:03;19.40;;;18.02;;
15454;SDS011;21057;51.024;7.540;2023-07-20T09:27:35;19.23;;;17.92;;
15454;SDS011;21057;51.024;7.540;2023-07-20T09:30:03;19.40;;;18.20;;
15454;SDS011;21057;51.024;7.540;2023-07-20T09:32:32;18.45;;;17.23;;
15454;SDS011;21057;51.024;7.540;2023-07-20T09:35:07;18.92;;;17.75;;
15454;SDS011;21057;51.024;7.540;2023-07-20T09:37:39;19.65;;;18.15;;
15454;SDS011;21057;51.024;7.540;2023-07-20T09:40:07;18.52;;;17.33;;
15454;SDS011;21057;51.024;7.540;2023-07-20T09:42:35;18.17;;;17.08;;
15454;SDS011;21057;51.024;7.540;2023-07-20T09:45:03;18.38;;;17.10;;
15454;SDS011;21057;51.024;7.540;2023-07-20T09:47:34;18.10;;;16.67;;
15454;SDS011;21057;51.024;7.540;2023-07-20T09:50:05;18.35;;;17.00;;
15454;SDS011;21057;51.024;7.540;2023-07-20T09:52:36;17.27;;;16.17;;
15454;SDS011;21057;51.024;7.540;2023-07-20T09:55:05;17.60;;;16.50;;
15454;SDS011;21057;51.024;7.540;2023-07-20T09:57:33;17.27;;;16.17;;
15454;SDS011;21057;51.024;7.540;2023-07-20T10:00:01;16.38;;;15.32;;
15454;SDS011;21057;51.024;7.540;2023-07-20T10:02:36;16.75;;;15.45;;
15454;SDS011;21057;51.024;7.540;2023-07-20T10:05:16;18.48;;;17.27;;
15454;SDS011;21057;51.024;7.540;2023-07-20T10:07:44;17.00;;;16.00;;
15454;SDS011;21057;51.024;7.540;2023-07-20T10:10:14;18.73;;;17.42;;
15454;SDS011;21057;51.024;7.540;2023-07-20T10:12:42;17.98;;;16.88;;
15454;SDS011;21057;51.024;7.540;2023-07-20T10:15:13;18.80;;;17.42;;
15454;SDS011;21057;51.024;7.540;2023-07-20T10:17:47;18.75;;;17.52;;
15454;SDS011;21057;51.024;7.540;2023-07-20T10:20:24;18.65;;;17.45;;
15454;SDS011;21057;51.024;7.540;2023-07-20T10:22:53;19.52;;;18.02;;
15454;SDS011;21057;51.024;7.540;2023-07-20T10:25:20;18.60;;;17.40;;
15454;SDS011;21057;51.024;7.540;2023-07-20T10:27:49;19.45;;;18.20;;
15454;SDS011;21057;51.024;7.540;2023-07-20T10:30:16;20.10;;;18.58;;
15454;SDS011;21057;51.024;7.540;2023-07-20T10:32:45;19.77;;;18.48;;
15454;SDS011;21057;51.024;7.540;2023-07-20T10:35:12;18.48;;;17.38;;
15454;SDS011;21057;51.024;7.540;2023-07-20T10:37:48;20.73;;;19.52;;
15454;SDS011;21057;51.024;7.540;2023-07-20T10:40:31;19.00;;;17.80;;
15454;SDS011;21057;51.024;7.540;2023-07-20T10:42:59;24.85;;;22.50;;
15454;SDS011;21057;51.024;7.540;2023-07-20T10:48:18;18.80;;;17.50;;
15454;SDS011;21057;51.024;7.540;2023-07-20T10:50:46;18.33;;;17.23;;
15454;SDS011;21057;51.024;7.540;2023-07-20T10:53:29;18.23;;;17.02;;
15454;SDS011;21057;51.024;7.540;2023-07-20T10:56:05;18.50;;;17.40;;
15454;SDS011;21057;51.024;7.540;2023-07-20T10:58:33;18.38;;;17.23;;
15454;SDS011;21057;51.024;7.540;2023-07-20T11:01:00;18.60;;;17.17;;
15454;SDS011;21057;51.024;7.540;2023-07-20T11:03:29;16.60;;;15.60;;
15454;SDS011;21057;51.024;7.540;2023-07-20T11:05:57;17.55;;;16.35;;
15454;SDS011;21057;51.024;7.540;2023-07-20T11:08:39;17.60;;;16.60;;
15454;SDS011;21057;51.024;7.540;2023-07-20T11:11:23;17.50;;;16.40;;
15454;SDS011;21057;51.024;7.540;2023-07-20T11:13:54;17.17;;;16.15;;
15454;SDS011;21057;51.024;7.540;2023-07-20T11:19:17;17.70;;;16.70;;
15454;SDS011;21057;51.024;7.540;2023-07-20T11:21:45;17.58;;;16.58;;
15454;SDS011;21057;51.024;7.540;2023-07-20T11:24:15;17.13;;;16.02;;
15454;SDS011;21057;51.024;7.540;2023-07-20T11:26:42;17.33;;;16.20;;
15454;SDS011;21057;51.024;7.540;2023-07-20T11:29:10;16.42;;;15.52;;
15454;SDS011;21057;51.024;7.540;2023-07-20T11:31:38;17.60;;;16.60;;
15454;SDS011;21057;51.024;7.540;2023-07-20T11:34:06;17.30;;;16.30;;
15454;SDS011;21057;51.024;7.540;2023-07-20T11:36:33;17.25;;;16.25;;
15454;SDS011;21057;51.024;7.540;2023-07-20T11:39:00;17.65;;;16.55;;
15454;SDS011;21057;51.024;7.540;2023-07-20T11:41:31;18.70;;;17.50;;
15454;SDS011;21057;51.024;7.540;2023-07-20T11:43:58;19.83;;;18.42;;
15454;SDS011;21057;51.024;7.540;2023-07-20T11:46:25;17.55;;;16.55;;
15454;SDS011;21057;51.024;7.540;2023-07-20T11:48:57;18.20;;;17.10;;
15454;SDS011;21057;51.024;7.540;2023-07-20T11:51:25;17.52;;;16.50;;
15454;SDS011;21057;51.024;7.540;2023-07-20T11:53:53;17.38;;;16.38;;
15454;SDS011;21057;51.024;7.540;2023-07-20T11:56:20;17.48;;;16.48;;
15454;SDS011;21057;51.024;7.540;2023-07-20T11:58:49;17.70;;;16.67;;
15454;SDS011;21057;51.024;7.540;2023-07-20T12:01:17;16.90;;;15.82;;
15454;SDS011;21057;51.024;7.540;2023-07-20T12:03:45;16.88;;;15.98;;
15454;SDS011;21057;51.024;7.540;2023-07-20T12:06:14;17.65;;;16.65;;
15454;SDS011;21057;51.024;7.540;2023-07-20T12:08:41;17.10;;;16.10;;
15454;SDS011;21057;51.024;7.540;2023-07-20T12:11:09;17.15;;;16.25;;
15454;SDS011;21057;51.024;7.540;2023-07-20T12:13:37;18.25;;;17.20;;
15454;SDS011;21057;51.024;7.540;2023-07-20T12:16:12;18.10;;;17.00;;
15454;SDS011;21057;51.024;7.540;2023-07-20T12:18:40;17.67;;;16.60;;
15454;SDS011;21057;51.024;7.540;2023-07-20T12:21:07;16.45;;;15.45;;
15454;SDS011;21057;51.024;7.540;2023-07-20T12:23:34;17.40;;;16.40;;
15454;SDS011;21057;51.024;7.540;2023-07-20T12:26:03;17.10;;;16.10;;
15454;SDS011;21057;51.024;7.540;2023-07-20T12:28:32;16.70;;;15.70;;
15454;SDS011;21057;51.024;7.540;2023-07-20T12:30:59;16.85;;;15.85;;
15454;SDS011;21057;51.024;7.540;2023-07-20T12:33:27;16.20;;;15.30;;
15454;SDS011;21057;51.024;7.540;2023-07-20T12:35:54;15.73;;;14.82;;
15454;SDS011;21057;51.024;7.540;2023-07-20T12:38:23;16.35;;;15.35;;
15454;SDS011;21057;51.024;7.540;2023-07-20T12:40:50;16.60;;;15.60;;
15454;SDS011;21057;51.024;7.540;2023-07-20T12:43:17;16.52;;;15.52;;
15454;SDS011;21057;51.024;7.540;2023-07-20T12:45:44;16.95;;;15.95;;
15454;SDS011;21057;51.024;7.540;2023-07-20T12:48:11;16.27;;;15.38;;
15454;SDS011;21057;51.024;7.540;2023-07-20T12:50:39;17.10;;;16.10;;
15454;SDS011;21057;51.024;7.540;2023-07-20T12:53:06;17.55;;;16.50;;
15454;SDS011;21057;51.024;7.540;2023-07-20T12:55:33;17.90;;;16.70;;
15454;SDS011;21057;51.024;7.540;2023-07-20T12:58:00;17.60;;;16.60;;
15454;SDS011;21057;51.024;7.540;2023-07-20T13:00:26;17.67;;;16.58;;
15454;SDS011;21057;51.024;7.540;2023-07-20T13:02:53;17.40;;;16.40;;
15454;SDS011;21057;51.024;7.540;2023-07-20T13:05:20;16.63;;;15.63;;
15454;SDS011;21057;51.024;7.540;2023-07-20T13:07:48;17.27;;;16.17;;
15454;SDS011;21057;51.024;7.540;2023-07-20T13:10:15;16.95;;;15.85;;
15454;SDS011;21057;51.024;7.540;2023-07-20T13:12:42;17.35;;;16.25;;
15454;SDS011;21057;51.024;7.540;2023-07-20T13:15:09;17.85;;;16.75;;
15454;SDS011;21057;51.024;7.540;2023-07-20T13:17:37;16.92;;;15.93;;
15454;SDS011;21057;51.024;7.540;2023-07-20T13:20:06;17.40;;;16.40;;
15454;SDS011;21057;51.024;7.540;2023-07-20T13:22:35;17.00;;;16.00;;
15454;SDS011;21057;51.024;7.540;2023-07-20T13:25:03;17.98;;;16.98;;
15454;SDS011;21057;51.024;7.540;2023-07-20T13:27:31;17.33;;;16.33;;
15454;SDS011;21057;51.024;7.540;2023-07-20T13:29:58;17.30;;;16.30;;
15454;SDS011;21057;51.024;7.540;2023-07-20T13:32:25;17.70;;;16.60;;
15454;SDS011;21057;51.024;7.540;2023-07-20T13:34:52;17.85;;;16.60;;
15454;SDS011;21057;51.024;7.540;2023-07-20T13:37:19;16.85;;;15.95;;
15454;SDS011;21057;51.024;7.540;2023-07-20T13:39:46;16.60;;;15.70;;
15454;SDS011;21057;51.024;7.540;2023-07-20T13:42:15;16.50;;;15.50;;
15454;SDS011;21057;51.024;7.540;2023-07-20T13:44:42;16.42;;;15.52;;
15454;SDS011;21057;51.024;7.540;2023-07-20T13:47:09;16.33;;;15.43;;
15454;SDS011;21057;51.024;7.540;2023-07-20T13:49:36;19.92;;;18.42;;
15454;SDS011;21057;51.024;7.540;2023-07-20T13:52:03;17.48;;;16.38;;
15454;SDS011;21057;51.024;7.540;2023-07-20T13:54:31;16.40;;;15.30;;
15454;SDS011;21057;51.024;7.540;2023-07-20T13:56:57;16.80;;;15.88;;
15454;SDS011;21057;51.024;7.540;2023-07-20T13:59:26;15.85;;;14.95;;
15454;SDS011;21057;51.024;7.540;2023-07-20T14:01:52;16.25;;;15.25;;
15454;SDS011;21057;51.024;7.540;2023-07-20T14:04:19;16.50;;;15.57;;
15454;SDS011;21057;51.024;7.540;2023-07-20T14:06:46;16.38;;;15.48;;
15454;SDS011;21057;51.024;7.540;2023-07-20T14:09:13;17.00;;;15.90;;
15454;SDS011;21057;51.024;7.540;2023-07-20T14:11:40;17.55;;;16.55;;
15454;SDS011;21057;51.024;7.540;2023-07-20T14:14:07;16.23;;;15.32;;
15454;SDS011;21057;51.024;7.540;2023-07-20T14:16:35;16.50;;;15.60;;
15454;SDS011;21057;51.024;7.540;2023-07-20T14:19:02;16.80;;;15.80;;
15454;SDS011;21057;51.024;7.540;2023-07-20T14:21:30;16.30;;;15.40;;
15454;SDS011;21057;51.024;7.540;2023-07-20T14:23:58;16.45;;;15.55;;
15454;SDS011;21057;51.024;7.540;2023-07-20T14:26:25;17.15;;;16.15;;
15454;SDS011;21057;51.024;7.540;2023-07-20T14:28:52;16.60;;;15.70;;
15454;SDS011;21057;51.024;7.540;2023-07-20T14:31:19;16.30;;;15.40;;
15454;SDS011;21057;51.024;7.540;2023-07-20T14:33:47;16.55;;;15.65;;
15454;SDS011;21057;51.024;7.540;2023-07-20T14:36:14;17.80;;;16.65;;